createdAt,value
2018-06-08T00:00:30.521Z,87.1
2018-06-08T00:05:30.509Z,87.4
2018-06-08T00:10:30.294Z,88.1
2018-06-08T00:15:30.302Z,88.7
2018-06-08T00:20:33.178Z,87.7
2018-06-08T00:25:33.064Z,87.7
2018-06-08T00:30:43.696Z,88.9
2018-06-08T00:35:43.417Z,90
2018-06-08T00:40:43.423Z,88.6
2018-06-08T00:45:43.555Z,88.2
2018-06-08T00:50:43.598Z,88.2
2018-06-08T00:55:43.414Z,89.5
2018-06-08T01:00:43.537Z,90.9
2018-06-08T01:05:44.504Z,92.3
2018-06-08T01:10:44.232Z,91.2
2018-06-08T01:15:56.934Z,89.2
2018-06-08T01:20:56.665Z,90.3
2018-06-08T01:25:56.676Z,88.9
2018-06-08T01:30:56.675Z,88.4
2018-06-08T01:35:56.820Z,89.4
2018-06-08T01:40:56.671Z,89.9
2018-06-08T01:45:56.697Z,90.8
2018-06-08T01:50:59.753Z,89.7
2018-06-08T01:55:59.687Z,90
2018-06-08T02:01:13.728Z,90
2018-06-08T02:06:13.697Z,89.6
2018-06-08T02:11:13.610Z,89.3
2018-06-08T02:16:13.652Z,89
2018-06-08T02:21:13.699Z,89.4
2018-06-08T02:26:13.608Z,90.5
2018-06-08T02:31:13.663Z,90.7
2018-06-08T02:36:16.463Z,91
2018-06-08T02:41:16.388Z,90.8
2018-06-08T02:46:26.734Z,90.1
2018-06-08T02:51:26.698Z,91.8
2018-06-08T02:56:26.644Z,92
2018-06-08T03:01:26.666Z,92.2
2018-06-08T03:06:26.576Z,91.8
2018-06-08T03:11:26.475Z,91.9
2018-06-08T03:16:27.724Z,91.1
2018-06-08T03:21:31.327Z,92.3
2018-06-08T03:26:31.358Z,93.2
2018-06-08T03:31:41.663Z,92.5
2018-06-08T03:36:41.519Z,92.5
2018-06-08T03:41:41.372Z,93.9
2018-06-08T03:46:41.496Z,93.6
2018-06-08T03:51:41.537Z,94.9
2018-06-08T03:56:41.506Z,93.6
2018-06-08T04:01:41.363Z,94.4
2018-06-08T04:06:41.380Z,97
2018-06-08T04:11:41.581Z,95.2
2018-06-08T04:16:53.667Z,95.3
2018-06-08T04:21:53.511Z,93.1
2018-06-08T04:26:53.501Z,93.1
2018-06-08T04:31:53.593Z,92.3
2018-06-08T04:36:53.523Z,91.5
2018-06-08T04:41:53.558Z,91.4
2018-06-08T04:46:53.598Z,91.2
2018-06-08T04:51:55.118Z,92.1
2018-06-08T04:56:55.019Z,92.8
2018-06-08T05:02:07.531Z,92.6
2018-06-08T05:07:07.458Z,95.1
2018-06-08T05:12:07.403Z,94.4
2018-06-08T05:17:07.401Z,94.9
2018-06-08T05:22:07.274Z,94.7
2018-06-08T05:27:07.275Z,94.3
2018-06-08T05:32:07.281Z,94.7
2018-06-08T05:37:08.583Z,95
2018-06-08T05:42:08.302Z,94.1
2018-06-08T05:47:16.379Z,93.7
2018-06-08T05:52:13.664Z,92.5
2018-06-08T05:57:15.134Z,92.2
2018-06-08T06:02:15.444Z,92.3
2018-06-08T06:07:28.078Z,92.4
2018-06-08T06:12:29.392Z,92
2018-06-08T06:17:27.829Z,90.3
2018-06-08T06:22:27.779Z,90.1
2018-06-08T06:27:27.849Z,88.6
2018-06-08T06:32:28.008Z,88.4
2018-06-08T06:37:27.825Z,88.7
2018-06-08T06:42:27.828Z,89.1
2018-06-08T06:47:27.830Z,86.5
2018-06-08T06:52:39.004Z,85.5
2018-06-08T06:57:39.040Z,83.6
2018-06-08T07:02:38.751Z,82.9
2018-06-08T07:07:38.876Z,80.5
2018-06-08T07:12:38.759Z,79.7
2018-06-08T07:17:38.740Z,78.1
2018-06-08T07:22:39.194Z,75
2018-06-08T07:27:44.293Z,73.4
2018-06-08T07:32:44.071Z,71.7
2018-06-08T07:37:56.171Z,71
2018-06-08T07:42:55.888Z,71.2
2018-06-08T07:47:55.887Z,70.9
2018-06-08T07:52:56.085Z,68.8
2018-06-08T07:57:55.869Z,67.6
2018-06-08T08:02:55.881Z,70
2018-06-08T08:07:55.861Z,67.2
2018-06-08T08:12:55.883Z,66.4
2018-06-08T08:17:55.919Z,66
2018-06-08T08:22:55.892Z,64.2
2018-06-08T08:27:55.918Z,62
2018-06-08T08:32:55.910Z,63.8
2018-06-08T08:37:57.209Z,61.9
2018-06-08T08:42:56.819Z,57.8
2018-06-08T08:48:10.166Z,58.4
2018-06-08T08:53:09.884Z,57
2018-06-08T08:58:10.045Z,55
2018-06-08T09:03:10.122Z,52.7
2018-06-08T09:08:10.138Z,54.3
2018-06-08T09:13:09.905Z,55.6
2018-06-08T09:18:09.921Z,52.7
2018-06-08T09:23:09.939Z,52.8
2018-06-08T09:28:10.053Z,53.1
2018-06-08T09:33:09.977Z,52.9
2018-06-08T09:38:09.932Z,52.6
2018-06-08T09:43:10.160Z,53.2
2018-06-08T09:48:10.864Z,54.1
2018-06-08T09:53:10.593Z,51.7
2018-06-08T09:58:22.751Z,53
2018-06-08T10:03:22.493Z,51.3
2018-06-08T10:08:22.426Z,48.2
2018-06-08T10:13:22.477Z,47.7
2018-06-08T10:18:22.499Z,45.7
2018-06-08T10:23:22.497Z,43.3
2018-06-08T10:28:22.739Z,45.3
2018-06-08T10:33:22.501Z,46.2
2018-06-08T10:38:22.519Z,44.5
2018-06-08T10:43:33.994Z,42.6
2018-06-08T10:48:33.720Z,42.7
2018-06-08T10:53:33.862Z,43.4
2018-06-08T10:58:33.870Z,40.9
2018-06-08T11:03:33.953Z,42
2018-06-08T11:08:33.718Z,41.2
2018-06-08T11:13:33.909Z,40.8
2018-06-08T11:18:36.413Z,40.8
2018-06-08T11:23:36.453Z,41.8
2018-06-08T11:28:46.490Z,40.5
2018-06-08T11:33:46.221Z,41
2018-06-08T11:38:46.358Z,41.4
2018-06-08T11:43:46.242Z,40.4
2018-06-08T11:48:46.709Z,39.4
2018-06-08T11:53:46.420Z,40.6
2018-06-08T11:58:46.574Z,40.1
2018-06-08T12:03:46.721Z,40.4
2018-06-08T12:08:46.473Z,41.6
2018-06-08T12:13:58.849Z,40.9
2018-06-08T12:18:58.563Z,40.9
2018-06-08T12:23:58.533Z,41.3
2018-06-08T12:28:58.536Z,41.8
2018-06-08T12:33:58.542Z,42.1
2018-06-08T12:38:58.547Z,41.9
2018-06-08T12:43:58.538Z,42.3
2018-06-08T12:48:58.747Z,42.6
2018-06-08T12:53:58.586Z,42.7
2018-06-08T12:59:09.554Z,41.6
2018-06-08T13:04:09.224Z,43.8
2018-06-08T13:09:09.301Z,43.1
2018-06-08T13:14:09.725Z,43.2
2018-06-08T13:19:09.853Z,43.4
2018-06-08T13:24:09.640Z,43.3
2018-06-08T13:29:09.566Z,43.1
2018-06-08T13:34:12.758Z,44
2018-06-08T13:39:12.516Z,44.4
2018-06-08T13:44:24.986Z,43.4
2018-06-08T13:49:24.691Z,44.6
2018-06-08T13:54:24.859Z,44.6
2018-06-08T13:59:24.923Z,45.1
2018-06-08T14:04:24.854Z,46.1
2018-06-08T14:09:24.695Z,46.2
2018-06-08T14:14:24.934Z,46.7
2018-06-08T14:19:28.794Z,46.6
2018-06-08T14:24:28.749Z,46.7
2018-06-08T14:29:40.955Z,47.3
2018-06-08T14:34:40.766Z,48.1
2018-06-08T14:39:40.667Z,49.1
2018-06-08T14:44:40.690Z,48.4
2018-06-08T14:49:40.844Z,49
2018-06-08T14:54:40.677Z,48.8
2018-06-08T14:59:40.706Z,47.8
2018-06-08T15:04:43.595Z,47.5
2018-06-08T15:09:40.799Z,48.5
2018-06-08T15:14:52.463Z,48.3
2018-06-08T15:19:52.206Z,49.1
2018-06-08T15:24:52.436Z,48.8
2018-06-08T15:29:52.379Z,50.2
2018-06-08T15:34:52.400Z,52
2018-06-08T15:39:53.100Z,51.8
2018-06-08T15:44:53.448Z,53
2018-06-08T15:49:59.317Z,52.2
2018-06-08T15:54:59.058Z,53.4
2018-06-08T16:00:06.684Z,52.9
2018-06-08T16:05:06.436Z,52.7
2018-06-08T16:10:06.422Z,53.2
2018-06-08T16:15:06.430Z,54
2018-06-08T16:20:06.428Z,53.9
2018-06-08T16:25:06.694Z,54
2018-06-08T16:30:06.609Z,53.9
2018-06-08T16:35:07.223Z,53.7
2018-06-08T16:40:08.223Z,54.3
2018-06-08T16:45:19.402Z,54.1
2018-06-08T16:50:19.145Z,54.3
2018-06-08T16:55:19.104Z,54.7
2018-06-08T17:00:19.141Z,54.8
2018-06-08T17:05:19.139Z,54.7
2018-06-08T17:10:19.154Z,55.1
2018-06-08T17:15:19.157Z,55.2
2018-06-08T17:20:23.062Z,56.3
2018-06-08T17:25:22.797Z,56.9
2018-06-08T17:30:34.832Z,56.2
2018-06-08T17:35:34.560Z,57.1
2018-06-08T17:40:34.573Z,57.2
2018-06-08T17:45:34.990Z,57.5
2018-06-08T17:50:34.795Z,57.6
2018-06-08T17:55:34.716Z,57.5
2018-06-08T18:00:34.739Z,59.1
2018-06-08T18:05:39.080Z,58.7
2018-06-08T18:10:38.824Z,59
2018-06-08T18:15:51.764Z,57.4
2018-06-08T18:20:51.232Z,54.3
2018-06-08T18:25:51.202Z,50
2018-06-08T18:30:51.238Z,47.1
2018-06-08T18:35:51.792Z,47.3
2018-06-08T18:40:52.489Z,45.6
2018-06-08T18:45:51.089Z,44.8
2018-06-08T18:50:56.570Z,44.8
2018-06-08T18:55:56.560Z,48.1
2018-06-08T19:01:06.197Z,49.2
2018-06-08T19:06:06.100Z,49.2
2018-06-08T19:11:06.088Z,49.9
2018-06-08T19:16:06.047Z,52.2
2018-06-08T19:21:06.181Z,52.4
2018-06-08T19:26:06.049Z,52
2018-06-08T19:31:06.114Z,53.7
2018-06-08T19:36:08.590Z,53.1
2018-06-08T19:41:08.581Z,54.7
2018-06-08T19:46:22.013Z,54.9
2018-06-08T19:51:21.828Z,56.1
2018-06-08T19:56:21.757Z,57
2018-06-08T20:01:22.115Z,57.1
2018-06-08T20:06:21.991Z,56.9
2018-06-08T20:11:21.888Z,59.3
2018-06-08T20:16:22.109Z,59.9
2018-06-08T20:21:22.064Z,61.1
2018-06-08T20:26:22.017Z,61
2018-06-08T20:31:22.044Z,61.5
2018-06-08T20:36:21.884Z,61.3
2018-06-08T20:41:21.891Z,62.9
2018-06-08T20:46:21.883Z,62.1
2018-06-08T20:51:22.098Z,62.2
2018-06-08T20:56:35.672Z,62
2018-06-08T21:01:35.541Z,62.2
2018-06-08T21:06:35.619Z,63.5
2018-06-08T21:11:35.722Z,63.3
2018-06-08T21:16:35.576Z,64.3
2018-06-08T21:21:35.426Z,65.5
2018-06-08T21:26:35.441Z,65.7
2018-06-08T21:31:35.592Z,67.9
2018-06-08T21:36:35.645Z,66.8
2018-06-08T21:41:36.038Z,67.6
2018-06-08T21:46:35.805Z,66.9
2018-06-08T21:51:35.560Z,66.9
2018-06-08T21:56:37.222Z,68.4
2018-06-08T22:01:36.960Z,67.9
2018-06-08T22:06:49.420Z,69.9
2018-06-08T22:11:49.273Z,70
2018-06-08T22:16:49.122Z,69.5
2018-06-08T22:21:49.160Z,70.3
2018-06-08T22:26:49.122Z,69.7
2018-06-08T22:31:49.132Z,70.2
2018-06-08T22:36:49.135Z,70.5
2018-06-08T22:41:52.235Z,70.2
2018-06-08T22:46:51.714Z,69.6
2018-06-08T22:52:04.681Z,69.2
2018-06-08T22:57:04.627Z,70.2
2018-06-08T23:02:04.391Z,70.2
2018-06-08T23:07:04.400Z,69.7
2018-06-08T23:12:04.399Z,71.1
2018-06-08T23:17:04.580Z,70.9
2018-06-08T23:22:04.409Z,70.5
2018-06-08T23:27:04.783Z,71.3
2018-06-08T23:32:04.505Z,72.5
2018-06-08T23:37:16.572Z,72.6
2018-06-08T23:42:16.497Z,72.4
2018-06-08T23:47:16.427Z,72
2018-06-08T23:52:16.489Z,73.3
2018-06-08T23:57:16.525Z,73.1
